Time;durP1;ratioP1;P1;durP2;ratioP2;P2;SDS_P1;SDS_P2;PMS_P1;PMS_P2;Temp;Humidity;BMP_temperature;BMP_pressure;BME280_temperature;BME280_humidity;BME280_pressure;Samples;Min_cycle;Max_cycle;Signal;HPM_P1;HPM_P2
2022/12/30 00:00:54;;;;;;;0.75;0.32;;;8.80;99.90;;;;;;5008159;28;20396;-74
2022/12/30 00:03:20;;;;;;;0.50;0.30;;;8.80;99.90;;;;;;5011062;28;20793;-74
2022/12/30 00:05:45;;;;;;;0.70;0.40;;;8.80;99.90;;;;;;5014136;28;20828;-73
2022/12/30 00:10:55;;;;;;;0.50;0.40;;;8.80;99.90;;;;;;4994831;28;20381;-74
2022/12/30 00:35:20;;;;;;;1.80;0.50;;;8.80;99.90;;;;;;5013681;28;20388;-74
2022/12/30 00:37:46;;;;;;;1.20;0.40;;;8.80;99.90;;;;;;5013365;28;20411;-74
2022/12/30 00:40:12;;;;;;;0.90;0.50;;;8.80;99.90;;;;;;5012133;28;20401;-74
2022/12/30 00:45:24;;;;;;;0.43;0.30;;;8.70;99.90;;;;;;4993679;28;20555;-74
2022/12/30 00:47:50;;;;;;;1.23;0.50;;;8.80;99.90;;;;;;4993895;28;20467;-74
2022/12/30 00:58:28;;;;;;;0.50;0.50;;;8.80;99.90;;;;;;5013224;28;20420;-74
2022/12/30 01:00:55;;;;;;;0.50;0.30;;;8.80;99.90;;;;;;5013186;28;21068;-74
2022/12/30 01:03:20;;;;;;;1.70;0.40;;;8.80;99.90;;;;;;5012266;28;20393;-74
2022/12/30 01:05:46;;;;;;;0.98;0.40;;;8.70;99.90;;;;;;5012949;28;20404;-74
2022/12/30 01:08:11;;;;;;;1.50;0.50;;;8.70;99.90;;;;;;5010095;28;20880;-74
2022/12/30 01:10:40;;;;;;;1.20;0.40;;;8.60;99.90;;;;;;4993341;28;20758;-74
2022/12/30 01:13:06;;;;;;;0.80;0.50;;;8.60;99.90;;;;;;4992861;28;20414;-74
2022/12/30 01:15:32;;;;;;;0.93;0.50;;;8.70;99.90;;;;;;5003879;28;20397;-74
2022/12/30 01:17:57;;;;;;;1.77;0.60;;;8.60;99.90;;;;;;5012826;28;20804;-74
2022/12/30 01:20:23;;;;;;;1.10;0.60;;;8.70;99.90;;;;;;5012689;28;20405;-74
2022/12/30 01:22:48;;;;;;;1.90;0.50;;;8.70;99.90;;;;;;5012119;28;20540;-74
2022/12/30 01:25:14;;;;;;;1.50;0.50;;;8.70;99.90;;;;;;5012302;28;20385;-74
2022/12/30 01:27:40;;;;;;;1.20;0.50;;;8.70;99.90;;;;;;5011009;28;20400;-75
2022/12/30 01:30:06;;;;;;;1.33;0.50;;;8.70;99.90;;;;;;5012584;28;20472;-75
2022/12/30 01:32:31;;;;;;;0.70;0.60;;;8.70;99.90;;;;;;5012073;28;20396;-74
2022/12/30 01:34:57;;;;;;;0.90;0.60;;;8.70;99.90;;;;;;5011977;28;20388;-74
2022/12/30 01:37:24;;;;;;;1.15;0.47;;;8.70;99.90;;;;;;5011053;28;20384;-74
2022/12/30 01:39:49;;;;;;;0.95;0.52;;;8.70;99.90;;;;;;5012047;28;20419;-74
2022/12/30 01:42:21;;;;;;;0.50;0.30;;;8.70;99.90;;;;;;5012384;28;20373;-74
2022/12/30 01:44:52;;;;;;;1.10;0.60;;;8.60;99.90;;;;;;5011410;28;20468;-74
2022/12/30 01:47:35;;;;;;;0.70;0.50;;;8.70;99.90;;;;;;5012136;28;20394;-74
2022/12/30 01:50:06;;;;;;;0.98;0.30;;;8.60;99.90;;;;;;5012253;28;20930;-74
2022/12/30 01:52:34;;;;;;;1.42;0.50;;;8.50;99.90;;;;;;5011509;28;20392;-74
2022/12/30 01:55:08;;;;;;;1.70;0.60;;;8.50;99.90;;;;;;5012111;28;20468;-74
2022/12/30 01:57:37;;;;;;;1.52;0.30;;;8.50;99.90;;;;;;5021886;28;21079;-73
2022/12/30 02:00:04;;;;;;;2.60;0.40;;;8.60;99.90;;;;;;5010570;28;20420;-74
2022/12/30 02:02:31;;;;;;;0.50;0.40;;;8.60;99.90;;;;;;5010659;28;20965;-74
2022/12/30 02:04:57;;;;;;;0.57;0.30;;;8.60;99.90;;;;;;5011638;28;20389;-73
2022/12/30 02:07:59;;;;;;;0.60;0.30;;;8.50;99.90;;;;;;5011734;28;20401;-74
2022/12/30 02:10:26;;;;;;;1.40;0.70;;;8.60;99.90;;;;;;4991657;28;20915;-75
2022/12/30 02:12:51;;;;;;;1.17;0.80;;;8.60;99.90;;;;;;5011197;28;20416;-74
2022/12/30 02:15:17;;;;;;;0.60;0.43;;;8.40;99.90;;;;;;5011411;28;20388;-74
2022/12/30 02:18:24;;;;;;;1.80;0.40;;;8.40;99.90;;;;;;5011709;28;20389;-75
2022/12/30 02:21:08;;;;;;;0.90;0.40;;;8.40;99.90;;;;;;4995051;28;20397;-74
2022/12/30 02:23:55;;;;;;;1.20;0.40;;;8.30;99.90;;;;;;5010917;28;20385;-74
2022/12/30 02:26:48;;;;;;;1.30;0.40;;;8.10;99.90;;;;;;5009070;28;20493;-74
2022/12/30 02:29:51;;;;;;;0.80;0.40;;;8.00;99.90;;;;;;5011259;28;20392;-74
2022/12/30 02:32:26;;;;;;;1.80;0.40;;;7.90;99.90;;;;;;5011410;28;20384;-74
2022/12/30 02:35:18;;;;;;;1.00;0.40;;;7.80;99.90;;;;;;5011063;28;20384;-74
2022/12/30 02:37:50;;;;;;;1.70;0.50;;;7.80;99.90;;;;;;5011358;28;20480;-74
2022/12/30 02:40:24;;;;;;;1.65;0.40;;;7.70;99.90;;;;;;5011153;28;20790;-73
2022/12/30 02:46:05;;;;;;;1.48;0.50;;;7.70;99.90;;;;;;5010848;28;20953;-73
2022/12/30 02:48:34;;;;;;;0.98;0.30;;;7.70;99.90;;;;;;5010878;28;20401;-73
2022/12/30 02:53:45;;;;;;;1.38;0.68;;;7.60;99.90;;;;;;5010792;28;20763;-73
2022/12/30 02:56:11;;;;;;;1.10;0.60;;;7.50;99.90;;;;;;5009334;28;20397;-73
2022/12/30 02:58:46;;;;;;;1.20;0.40;;;7.50;99.90;;;;;;5011099;28;20401;-73
2022/12/30 03:04:42;;;;;;;0.88;0.47;;;7.40;99.90;;;;;;5010732;28;20377;-73
2022/12/30 03:07:22;;;;;;;1.40;0.40;;;7.50;99.90;;;;;;5010879;28;20411;-73
2022/12/30 03:13:38;;;;;;;1.00;0.70;;;7.50;99.90;;;;;;5010277;28;20434;-73
2022/12/30 03:16:20;;;;;;;1.00;0.60;;;7.40;99.90;;;;;;5010255;28;20933;-73
2022/12/30 03:18:48;;;;;;;1.02;0.52;;;7.40;99.90;;;;;;5010592;28;20420;-73
2022/12/30 03:21:17;;;;;;;0.87;0.50;;;7.50;99.90;;;;;;5010242;28;20908;-73
2022/12/30 03:29:20;;;;;;;1.00;0.50;;;7.50;99.90;;;;;;4991193;28;20481;-73
2022/12/30 03:31:46;;;;;;;1.00;0.60;;;7.50;99.90;;;;;;4990804;28;20445;-73
2022/12/30 03:34:12;;;;;;;1.77;0.60;;;7.40;99.90;;;;;;4990149;28;20398;-72
2022/12/30 03:36:43;;;;;;;1.30;0.52;;;7.40;99.90;;;;;;5005609;28;20418;-73
2022/12/30 03:39:24;;;;;;;0.80;0.50;;;7.40;99.90;;;;;;4989880;28;20406;-73
2022/12/30 03:41:51;;;;;;;1.33;0.60;;;7.40;99.90;;;;;;5009666;28;20495;-73
2022/12/30 03:44:18;;;;;;;1.07;0.60;;;7.40;99.90;;;;;;5009741;28;20385;-73
2022/12/30 03:46:45;;;;;;;1.00;0.70;;;7.30;99.90;;;;;;5010225;28;20377;-73
2022/12/30 03:49:11;;;;;;;1.35;0.77;;;7.40;99.90;;;;;;5010246;28;20487;-73
2022/12/30 03:51:37;;;;;;;0.90;0.60;;;7.20;99.90;;;;;;5010353;28;20468;-73
2022/12/30 03:54:02;;;;;;;1.50;0.50;;;7.10;99.90;;;;;;5009430;28;20788;-73
2022/12/30 03:56:28;;;;;;;0.85;0.55;;;7.10;99.90;;;;;;5009981;28;20405;-73
2022/12/30 03:58:53;;;;;;;1.02;0.52;;;7.20;99.90;;;;;;5010155;28;20416;-73
2022/12/30 04:01:19;;;;;;;0.80;0.60;;;7.20;99.90;;;;;;5010275;28;20886;-72
2022/12/30 04:03:45;;;;;;;1.17;0.50;;;7.20;99.90;;;;;;5009462;28;20391;-73
2022/12/30 04:06:11;;;;;;;1.50;0.50;;;7.30;99.90;;;;;;5008265;28;20400;-72
2022/12/30 04:08:36;;;;;;;2.50;0.70;;;7.10;99.90;;;;;;5009949;28;20393;-73
2022/12/30 04:11:02;;;;;;;1.20;0.40;;;7.20;99.90;;;;;;5010110;28;20399;-72
2022/12/30 04:13:27;;;;;;;2.25;0.60;;;7.10;99.90;;;;;;5008054;28;20472;-73
2022/12/30 04:15:53;;;;;;;1.50;0.50;;;7.10;99.90;;;;;;5010131;28;20396;-73
2022/12/30 04:18:19;;;;;;;0.80;0.50;;;7.10;99.90;;;;;;5008339;28;21131;-73
2022/12/30 04:20:46;;;;;;;0.80;0.60;;;7.10;99.90;;;;;;5009885;28;20847;-73
2022/12/30 04:23:11;;;;;;;1.20;0.60;;;7.00;99.90;;;;;;5009365;28;20448;-73
2022/12/30 04:25:37;;;;;;;1.50;0.60;;;7.00;99.90;;;;;;5010005;28;20883;-73
2022/12/30 04:28:02;;;;;;;1.70;0.50;;;7.00;99.90;;;;;;5009834;28;20475;-73
2022/12/30 04:30:28;;;;;;;1.00;0.75;;;6.90;99.90;;;;;;5009993;28;20398;-73
2022/12/30 04:32:53;;;;;;;1.30;0.70;;;6.90;99.90;;;;;;5009201;28;20507;-73
2022/12/30 04:35:19;;;;;;;1.07;0.57;;;6.80;99.90;;;;;;5009898;28;21014;-73
2022/12/30 04:37:47;;;;;;;1.40;0.80;;;6.80;99.90;;;;;;5010333;28;20388;-73
2022/12/30 04:40:13;;;;;;;0.85;0.57;;;6.80;99.90;;;;;;5010274;28;20903;-73
2022/12/30 04:42:38;;;;;;;1.48;0.80;;;6.70;99.90;;;;;;5009666;28;20476;-73
2022/12/30 04:45:07;;;;;;;1.40;0.60;;;6.80;99.90;;;;;;5010434;28;20392;-73
2022/12/30 04:47:32;;;;;;;1.80;0.80;;;6.90;99.90;;;;;;5010053;28;20389;-73
2022/12/30 04:49:58;;;;;;;1.30;0.60;;;6.90;99.90;;;;;;5012541;28;20863;-73
2022/12/30 04:52:24;;;;;;;0.90;0.50;;;6.90;99.90;;;;;;5013244;28;20405;-73
2022/12/30 04:54:49;;;;;;;1.85;0.90;;;6.90;99.90;;;;;;5013186;28;20389;-73
2022/12/30 04:57:15;;;;;;;1.48;0.73;;;6.90;99.90;;;;;;5012264;28;20393;-73
2022/12/30 04:59:40;;;;;;;1.40;1.30;;;6.90;99.90;;;;;;5013382;28;20503;-73
2022/12/30 05:02:06;;;;;;;1.53;0.60;;;6.90;99.90;;;;;;5013492;28;20388;-73
2022/12/30 05:04:31;;;;;;;1.10;0.70;;;6.90;99.90;;;;;;5012393;28;20428;-73
2022/12/30 05:06:57;;;;;;;2.80;0.80;;;6.90;99.90;;;;;;5012988;28;20960;-74
2022/12/30 05:09:22;;;;;;;2.77;1.10;;;6.90;99.90;;;;;;5000516;28;20474;-73
2022/12/30 05:11:48;;;;;;;1.40;0.60;;;6.90;99.90;;;;;;4993814;28;20386;-73
2022/12/30 05:14:13;;;;;;;1.23;0.68;;;6.90;99.90;;;;;;4992945;28;21064;-73
2022/12/30 05:16:39;;;;;;;1.73;0.70;;;6.90;99.90;;;;;;4995434;28;20390;-74
2022/12/30 05:19:05;;;;;;;0.70;0.60;;;6.70;99.90;;;;;;5013051;28;20409;-74
2022/12/30 05:21:30;;;;;;;1.90;0.70;;;6.70;99.90;;;;;;5013176;28;20381;-74
2022/12/30 05:26:40;;;;;;;1.30;0.50;;;6.60;99.90;;;;;;5010317;28;20405;-74
2022/12/30 05:29:05;;;;;;;0.88;0.50;;;6.50;99.90;;;;;;5008824;28;20393;-73
2022/12/30 05:31:31;;;;;;;1.10;0.60;;;6.50;99.90;;;;;;5008288;28;20409;-74
2022/12/30 05:33:56;;;;;;;1.47;0.80;;;6.40;99.90;;;;;;5011621;28;20514;-73
2022/12/30 05:36:22;;;;;;;1.10;0.80;;;6.40;99.90;;;;;;5012543;28;20475;-73
2022/12/30 05:38:47;;;;;;;0.83;0.60;;;6.40;99.90;;;;;;5011303;28;20465;-74
2022/12/30 05:41:13;;;;;;;2.67;0.88;;;6.30;99.90;;;;;;5012798;28;20395;-74
2022/12/30 05:43:38;;;;;;;1.30;0.90;;;6.20;99.90;;;;;;5011828;28;20475;-73
2022/12/30 05:46:04;;;;;;;2.20;0.70;;;6.30;99.90;;;;;;5012682;28;20392;-73
2022/12/30 05:48:30;;;;;;;1.98;0.75;;;6.20;99.90;;;;;;5012586;28;20385;-73
2022/12/30 05:50:56;;;;;;;1.80;0.60;;;6.20;99.90;;;;;;5011455;28;20409;-73
2022/12/30 05:53:21;;;;;;;1.40;0.70;;;6.20;99.90;;;;;;5010321;28;20388;-73
2022/12/30 05:55:47;;;;;;;0.90;0.63;;;6.10;99.90;;;;;;5012475;28;20385;-73
2022/12/30 05:58:12;;;;;;;1.10;0.80;;;6.10;99.90;;;;;;5012130;28;20388;-73
2022/12/30 06:00:38;;;;;;;1.08;0.80;;;6.00;99.90;;;;;;5005885;28;20900;-73
2022/12/30 06:03:04;;;;;;;1.60;0.90;;;6.00;99.90;;;;;;4999778;28;20816;-73
2022/12/30 06:08:01;;;;;;;1.30;0.90;;;5.90;99.90;;;;;;4984674;28;20424;-74
2022/12/30 06:10:26;;;;;;;1.20;1.10;;;5.90;99.90;;;;;;4989246;28;20390;-75
2022/12/30 06:12:52;;;;;;;0.80;0.80;;;5.80;99.90;;;;;;4983553;28;20394;-73
2022/12/30 06:15:17;;;;;;;1.20;0.60;;;5.80;99.90;;;;;;4992422;28;20828;-73
2022/12/30 06:17:43;;;;;;;0.80;0.70;;;5.90;99.90;;;;;;4974040;28;20388;-74
2022/12/30 06:20:09;;;;;;;1.30;0.80;;;5.80;99.90;;;;;;4972368;28;20408;-74
2022/12/30 06:22:34;;;;;;;0.80;0.80;;;5.80;99.90;;;;;;4972163;28;20404;-73
2022/12/30 06:25:00;;;;;;;0.70;0.70;;;5.80;99.90;;;;;;4955170;28;20388;-74
2022/12/30 06:27:25;;;;;;;1.50;0.97;;;5.80;99.90;;;;;;4972671;28;20450;-74
2022/12/30 06:29:51;;;;;;;1.77;1.00;;;5.80;99.90;;;;;;4972669;28;20407;-73
2022/12/30 06:32:17;;;;;;;1.48;1.00;;;5.80;99.90;;;;;;4970104;28;20419;-73
2022/12/30 06:34:42;;;;;;;1.10;0.90;;;5.80;99.90;;;;;;4971738;28;20893;-73
2022/12/30 06:37:08;;;;;;;1.00;0.90;;;5.70;99.90;;;;;;4955123;28;20407;-74
2022/12/30 06:39:34;;;;;;;0.90;0.90;;;5.70;99.90;;;;;;4972085;28;20419;-74
2022/12/30 06:41:59;;;;;;;1.47;0.83;;;5.70;99.90;;;;;;4964580;28;20454;-74
2022/12/30 06:44:25;;;;;;;1.50;1.00;;;5.70;99.90;;;;;;4971451;28;20396;-73
2022/12/30 06:46:50;;;;;;;1.80;1.20;;;5.60;99.90;;;;;;4972228;28;20396;-74
2022/12/30 06:49:16;;;;;;;2.45;0.93;;;5.60;99.90;;;;;;4964236;28;20400;-74
2022/12/30 06:51:41;;;;;;;2.30;1.20;;;5.50;99.90;;;;;;4972111;28;20929;-74
2022/12/30 06:54:06;;;;;;;2.58;1.02;;;5.50;99.90;;;;;;4970144;28;20392;-73
2022/12/30 06:56:32;;;;;;;1.40;1.20;;;5.50;99.90;;;;;;4971616;28;21045;-73
2022/12/30 06:58:57;;;;;;;1.20;1.10;;;5.50;99.90;;;;;;4970993;28;20461;-73
2022/12/30 07:01:23;;;;;;;2.60;0.90;;;5.50;99.90;;;;;;4972417;28;20433;-74
2022/12/30 07:03:48;;;;;;;1.00;0.90;;;5.50;99.90;;;;;;4970657;28;20404;-75
2022/12/30 07:06:14;;;;;;;0.93;0.90;;;5.50;99.90;;;;;;4972166;28;21020;-75
2022/12/30 07:08:39;;;;;;;1.40;1.10;;;5.40;99.90;;;;;;4972137;28;20392;-75
2022/12/30 07:11:05;;;;;;;1.83;1.02;;;5.40;99.90;;;;;;4972847;28;20471;-75
2022/12/30 07:13:30;;;;;;;1.10;1.00;;;5.40;99.90;;;;;;4971765;28;20388;-75
2022/12/30 07:15:56;;;;;;;2.10;1.30;;;5.40;99.90;;;;;;4971667;28;20404;-75
2022/12/30 07:18:21;;;;;;;1.27;1.17;;;5.40;99.90;;;;;;4972098;28;20528;-75
2022/12/30 07:20:47;;;;;;;1.90;1.00;;;5.30;99.90;;;;;;4971625;28;20507;-75
2022/12/30 07:23:13;;;;;;;1.20;1.00;;;5.30;99.90;;;;;;4971234;28;20401;-75
2022/12/30 07:25:38;;;;;;;1.80;1.30;;;5.20;99.90;;;;;;4969847;28;20452;-74
2022/12/30 07:28:04;;;;;;;1.70;1.40;;;5.30;99.90;;;;;;4964273;28;20476;-75
2022/12/30 07:30:31;;;;;;;1.20;1.10;;;5.30;99.90;;;;;;4971971;28;20396;-75
2022/12/30 07:32:56;;;;;;;2.30;1.20;;;5.20;99.90;;;;;;4970976;28;20454;-74
2022/12/30 07:35:22;;;;;;;2.00;1.40;;;5.30;99.90;;;;;;4971522;28;20487;-74
2022/12/30 07:37:50;;;;;;;1.60;1.30;;;5.20;99.90;;;;;;4954467;28;20430;-74
2022/12/30 07:40:15;;;;;;;2.70;1.33;;;5.20;99.90;;;;;;4971717;28;20422;-75
2022/12/30 07:42:41;;;;;;;2.15;1.40;;;5.30;99.90;;;;;;4971276;28;20388;-74
2022/12/30 07:45:08;;;;;;;2.45;1.50;;;5.20;99.90;;;;;;4971925;28;20392;-75
2022/12/30 07:47:34;;;;;;;1.92;1.40;;;5.30;99.90;;;;;;4967785;28;20404;-75
2022/12/30 07:50:00;;;;;;;1.48;1.38;;;5.20;99.90;;;;;;4967290;28;20778;-75
2022/12/30 07:52:27;;;;;;;2.42;1.60;;;5.20;99.90;;;;;;4950978;28;20856;-74
2022/12/30 07:54:52;;;;;;;1.30;1.20;;;5.30;99.90;;;;;;4966206;28;20408;-75
2022/12/30 07:57:18;;;;;;;2.42;1.80;;;5.10;99.90;;;;;;4971576;28;20384;-74
2022/12/30 07:59:43;;;;;;;1.70;1.50;;;5.20;99.90;;;;;;4971527;28;20993;-75
2022/12/30 08:02:10;;;;;;;3.30;1.40;;;5.20;99.90;;;;;;4971257;28;20906;-74
2022/12/30 08:04:36;;;;;;;1.63;1.33;;;5.20;99.90;;;;;;4970740;28;20388;-75
2022/12/30 08:07:01;;;;;;;2.50;1.60;;;5.30;99.90;;;;;;4971409;28;20458;-74
2022/12/30 08:09:27;;;;;;;1.50;1.20;;;5.30;99.90;;;;;;4971172;28;20494;-74
2022/12/30 08:11:52;;;;;;;1.23;1.00;;;5.40;99.90;;;;;;4971552;28;20478;-74
2022/12/30 08:14:18;;;;;;;1.70;1.33;;;5.40;99.90;;;;;;4970795;28;20392;-74
2022/12/30 08:16:43;;;;;;;1.58;1.15;;;5.40;99.90;;;;;;4971423;28;20399;-75
2022/12/30 08:19:09;;;;;;;2.20;1.40;;;5.50;99.90;;;;;;4971326;28;20930;-75
2022/12/30 08:21:35;;;;;;;2.50;1.30;;;5.60;99.90;;;;;;4971125;28;20479;-73
2022/12/30 08:24:00;;;;;;;1.40;1.30;;;5.60;99.90;;;;;;4954060;28;20384;-74
2022/12/30 08:26:26;;;;;;;3.03;1.73;;;5.60;99.90;;;;;;4957346;28;20957;-73
2022/12/30 08:28:52;;;;;;;2.70;1.70;;;5.70;99.90;;;;;;4957703;28;20462;-73
2022/12/30 08:31:25;;;;;;;3.10;1.85;;;5.70;99.90;;;;;;4975051;28;20874;-73
2022/12/30 08:33:51;;;;;;;2.10;1.70;;;5.80;99.90;;;;;;4974329;28;20404;-74
2022/12/30 08:36:20;;;;;;;1.60;1.40;;;5.80;99.90;;;;;;4974823;28;20400;-74
2022/12/30 08:38:49;;;;;;;1.80;1.50;;;5.80;99.90;;;;;;4974586;28;20748;-73
2022/12/30 08:41:18;;;;;;;1.60;1.50;;;5.90;99.90;;;;;;4974705;28;20400;-74
2022/12/30 08:43:44;;;;;;;2.88;1.40;;;6.00;99.90;;;;;;4974029;28;20471;-73
2022/12/30 08:46:09;;;;;;;2.33;1.90;;;6.00;99.90;;;;;;4975627;28;20867;-73
2022/12/30 08:48:35;;;;;;;1.80;1.40;;;6.00;99.90;;;;;;4974745;28;20471;-74
2022/12/30 08:51:01;;;;;;;1.80;1.43;;;6.10;99.90;;;;;;4974612;28;20882;-74
2022/12/30 08:53:27;;;;;;;2.00;1.60;;;6.20;99.90;;;;;;4970767;28;20794;-74
2022/12/30 08:56:04;;;;;;;4.05;2.60;;;6.20;99.90;;;;;;4956786;28;20415;-74
2022/12/30 08:58:31;;;;;;;3.30;1.50;;;6.30;99.90;;;;;;4974452;28;20516;-74
2022/12/30 09:00:57;;;;;;;2.60;1.40;;;6.30;99.90;;;;;;4974439;28;20751;-74
2022/12/30 09:03:22;;;;;;;2.95;1.40;;;6.40;99.90;;;;;;4956380;28;20384;-74
2022/12/30 09:05:52;;;;;;;5.10;2.20;;;6.40;99.90;;;;;;4974065;28;20392;-75
2022/12/30 09:08:19;;;;;;;2.50;1.60;;;6.60;99.90;;;;;;4974154;28;20404;-74
2022/12/30 09:10:44;;;;;;;2.30;1.67;;;6.70;99.90;;;;;;4974002;28;20879;-74
2022/12/30 09:13:10;;;;;;;2.53;1.40;;;6.80;99.90;;;;;;4973483;28;20396;-74
2022/12/30 09:15:36;;;;;;;2.70;1.88;;;6.80;99.90;;;;;;4974235;28;20411;-74
2022/12/30 09:18:01;;;;;;;2.45;1.95;;;7.00;99.90;;;;;;4974236;28;20396;-74
2022/12/30 09:20:27;;;;;;;2.22;1.50;;;7.00;99.90;;;;;;4973996;28;20516;-74
2022/12/30 09:22:52;;;;;;;3.47;1.90;;;7.10;99.90;;;;;;4973379;28;20399;-74
2022/12/30 09:25:18;;;;;;;2.60;1.70;;;7.30;99.90;;;;;;4972897;28;20396;-74
2022/12/30 09:27:43;;;;;;;2.57;1.50;;;7.40;99.90;;;;;;4967489;28;20771;-74
2022/12/30 09:30:09;;;;;;;2.30;1.77;;;7.50;99.90;;;;;;4971086;28;20482;-73
2022/12/30 09:32:35;;;;;;;1.92;1.25;;;7.70;99.90;;;;;;4972914;28;20558;-75
2022/12/30 09:35:00;;;;;;;5.23;1.37;;;7.80;99.90;;;;;;4973778;28;20530;-74
2022/12/30 09:37:26;;;;;;;2.53;1.30;;;7.90;99.90;;;;;;4970670;28;20401;-74
2022/12/30 09:39:51;;;;;;;2.33;1.40;;;7.90;99.90;;;;;;4968571;28;20770;-74
2022/12/30 09:45:05;;;;;;;3.00;1.80;;;8.10;99.90;;;;;;4973329;28;20403;-74
2022/12/30 09:47:38;;;;;;;2.10;1.45;;;8.30;99.90;;;;;;4973369;28;20392;-74
2022/12/30 09:50:15;;;;;;;2.40;1.30;;;8.30;99.90;;;;;;4973647;28;20392;-74
2022/12/30 09:53:17;;;;;;;2.13;1.15;;;8.50;99.90;;;;;;4972719;28;20898;-74
2022/12/30 09:55:54;;;;;;;1.67;1.10;;;8.60;99.90;;;;;;4962884;28;20446;-74
2022/12/30 09:58:26;;;;;;;2.30;1.00;;;8.60;99.90;;;;;;4973178;28;20399;-74
2022/12/30 10:00:52;;;;;;;1.98;1.10;;;8.60;99.90;;;;;;4972934;28;20420;-74
2022/12/30 10:03:22;;;;;;;3.03;1.00;;;8.70;99.90;;;;;;4964072;28;21045;-74
2022/12/30 10:06:10;;;;;;;1.85;1.13;;;8.80;99.90;;;;;;4973038;28;20906;-75
2022/12/30 10:09:02;;;;;;;1.77;1.00;;;8.80;99.90;;;;;;4973188;28;20395;-74
2022/12/30 10:11:52;;;;;;;0.80;0.80;;;8.90;99.90;;;;;;4946599;28;20392;-74
2022/12/30 10:14:41;;;;;;;1.20;1.10;;;9.10;99.90;;;;;;4972255;28;20451;-73
2022/12/30 10:17:54;;;;;;;1.45;1.08;;;9.10;99.90;;;;;;4972551;28;20467;-74
2022/12/30 10:20:47;;;;;;;1.60;1.00;;;9.20;99.90;;;;;;4911720;29;20509;-75
2022/12/30 10:23:28;;;;;;;1.50;1.05;;;9.20;99.90;;;;;;4952853;29;20378;-73
2022/12/30 10:26:06;;;;;;;1.63;1.10;;;9.20;99.90;;;;;;4955993;28;20412;-73
2022/12/30 10:28:45;;;;;;;1.20;1.10;;;9.30;99.90;;;;;;4955285;28;20439;-74
2022/12/30 10:31:20;;;;;;;1.80;1.00;;;9.30;99.90;;;;;;4972608;28;20396;-73
2022/12/30 10:33:48;;;;;;;1.10;1.00;;;9.50;99.90;;;;;;4971454;28;20411;-72
2022/12/30 10:36:42;;;;;;;1.10;0.90;;;9.60;99.90;;;;;;4969393;28;20439;-74
2022/12/30 10:39:22;;;;;;;1.40;0.80;;;9.70;99.90;;;;;;4966613;28;20778;-74
2022/12/30 10:42:06;;;;;;;1.10;0.70;;;9.70;99.90;;;;;;4955628;28;20391;-73
2022/12/30 10:44:43;;;;;;;1.60;0.90;;;9.80;99.90;;;;;;4971897;28;20892;-73
2022/12/30 10:47:35;;;;;;;0.80;0.60;;;9.90;99.90;;;;;;4971691;28;21003;-73
2022/12/30 10:50:25;;;;;;;1.00;0.80;;;10.00;99.90;;;;;;4972595;28;20389;-73
2022/12/30 10:52:51;;;;;;;2.40;1.10;;;9.90;99.90;;;;;;4971740;28;20479;-73
2022/12/30 10:55:26;;;;;;;2.05;0.95;;;10.10;99.90;;;;;;4972364;28;21124;-74
2022/12/30 10:57:59;;;;;;;0.90;0.77;;;10.30;99.90;;;;;;4972022;28;20412;-73
2022/12/30 11:00:25;;;;;;;3.33;0.98;;;10.00;99.90;;;;;;4972191;28;20411;-73
2022/12/30 11:02:55;;;;;;;1.30;0.90;;;10.20;99.90;;;;;;4971328;28;20404;-73
2022/12/30 11:05:33;;;;;;;1.15;0.80;;;10.20;99.90;;;;;;4971523;28;20480;-73
2022/12/30 11:08:00;;;;;;;1.10;0.90;;;10.20;99.90;;;;;;4971794;28;20401;-73
2022/12/30 11:10:27;;;;;;;0.90;0.80;;;10.20;99.90;;;;;;4971856;28;20458;-73
2022/12/30 11:15:54;;;;;;;2.20;1.00;;;10.10;99.90;;;;;;4972102;28;20419;-73
2022/12/30 11:18:25;;;;;;;1.42;0.80;;;10.20;99.90;;;;;;4972633;28;20396;-73
2022/12/30 11:20:53;;;;;;;2.65;1.05;;;10.30;99.90;;;;;;4971914;28;20419;-73
2022/12/30 11:23:33;;;;;;;1.03;0.70;;;10.30;99.90;;;;;;4970874;28;20840;-72
2022/12/30 11:26:01;;;;;;;1.38;1.00;;;10.40;99.90;;;;;;4954198;28;20447;-73
2022/12/30 11:28:42;;;;;;;1.23;0.90;;;10.40;99.90;;;;;;4971688;28;20480;-72
2022/12/30 11:31:11;;;;;;;1.20;0.90;;;10.40;99.90;;;;;;4971856;28;20921;-73
2022/12/30 11:33:44;;;;;;;1.20;1.10;;;10.50;99.90;;;;;;4970204;28;20790;-72
2022/12/30 11:36:28;;;;;;;1.30;0.80;;;10.50;99.90;;;;;;4970817;28;20400;-73
2022/12/30 11:38:57;;;;;;;0.82;0.75;;;10.60;99.90;;;;;;4971260;28;20416;-73
2022/12/30 11:41:33;;;;;;;1.07;0.70;;;10.50;99.90;;;;;;4971846;28;20467;-73
2022/12/30 11:43:58;;;;;;;1.45;0.73;;;10.60;99.90;;;;;;4970037;28;20398;-72
2022/12/30 11:46:51;;;;;;;2.00;1.70;;;10.60;99.90;;;;;;4971359;28;20863;-73
2022/12/30 11:49:47;;;;;;;1.20;0.90;;;10.60;99.90;;;;;;4945349;29;20754;-73
2022/12/30 11:52:19;;;;;;;1.60;0.80;;;10.80;99.90;;;;;;4962062;28;20447;-73
2022/12/30 11:55:02;;;;;;;0.95;0.80;;;10.70;99.90;;;;;;4954442;28;20771;-73
2022/12/30 11:57:31;;;;;;;1.20;0.90;;;10.90;99.90;;;;;;4971462;28;20909;-73
2022/12/30 12:00:17;;;;;;;1.20;0.90;;;10.80;99.90;;;;;;4958111;28;20992;-72
2022/12/30 12:02:57;;;;;;;1.02;0.90;;;10.90;99.90;;;;;;4961186;28;20456;-73
2022/12/30 12:05:27;;;;;;;1.60;1.20;;;10.80;99.90;;;;;;4976038;28;20398;-73
2022/12/30 12:07:58;;;;;;;2.33;0.90;;;10.70;99.90;;;;;;5044527;22;20466;-72
2022/12/30 12:10:31;;;;;;;1.10;0.80;;;10.80;99.90;;;;;;5030288;28;20451;-73
2022/12/30 12:13:01;;;;;;;1.10;1.00;;;10.90;99.90;;;;;;5034003;28;20398;-73
2022/12/30 12:15:47;;;;;;;2.20;0.90;;;10.80;99.90;;;;;;5035531;28;20387;-71
2022/12/30 12:18:20;;;;;;;2.30;0.98;;;10.70;99.90;;;;;;5015008;28;20385;-73
2022/12/30 12:20:46;;;;;;;4.45;4.00;;;10.80;99.90;;;;;;5011979;28;20423;-73
2022/12/30 12:23:23;;;;;;;1.30;1.20;;;10.90;99.90;;;;;;5008752;28;20861;-73
2022/12/30 12:26:14;;;;;;;0.70;0.60;;;11.30;99.90;;;;;;5013203;28;20499;-72
2022/12/30 12:28:43;;;;;;;1.00;0.85;;;11.90;99.00;;;;;;4990431;28;20431;-73
2022/12/30 12:31:36;;;;;;;1.00;0.77;;;12.00;99.90;;;;;;4998609;28;20399;-73
2022/12/30 12:34:30;;;;;;;0.95;0.80;;;12.10;99.60;;;;;;5012095;28;20384;-73
2022/12/30 12:37:28;;;;;;;0.80;0.70;;;12.10;98.20;;;;;;5011134;28;20401;-73
2022/12/30 12:40:15;;;;;;;1.30;0.95;;;12.30;96.60;;;;;;5012541;28;20562;-72
2022/12/30 12:43:31;;;;;;;0.70;0.65;;;12.70;88.40;;;;;;5003615;28;20404;-73
2022/12/30 12:46:12;;;;;;;1.30;1.20;;;12.80;88.80;;;;;;5001557;28;20887;-73
2022/12/30 12:49:11;;;;;;;1.00;0.83;;;12.90;87.10;;;;;;5009293;28;20776;-73
2022/12/30 12:52:07;;;;;;;0.90;0.77;;;12.80;90.60;;;;;;5012467;28;20400;-73
2022/12/30 12:54:44;;;;;;;1.70;0.90;;;13.00;85.70;;;;;;4997705;28;20819;-73
2022/12/30 12:57:28;;;;;;;1.00;0.70;;;13.00;83.40;;;;;;5012674;28;20377;-73
2022/12/30 13:00:11;;;;;;;1.00;0.70;;;13.00;83.00;;;;;;4993930;28;20402;-73
2022/12/30 13:02:59;;;;;;;0.90;0.60;;;12.90;85.70;;;;;;5006460;28;20424;-73
2022/12/30 13:05:37;;;;;;;0.70;0.70;;;13.10;82.50;;;;;;5012689;28;20403;-73
2022/12/30 13:08:31;;;;;;;1.40;1.03;;;13.00;86.50;;;;;;5006309;28;20402;-73
2022/12/30 13:11:17;;;;;;;1.30;0.70;;;13.10;81.70;;;;;;4992728;28;20543;-73
2022/12/30 13:14:19;;;;;;;1.15;0.80;;;13.20;81.20;;;;;;4992179;28;20406;-73
2022/12/30 13:16:48;;;;;;;1.17;0.90;;;13.30;81.70;;;;;;5011111;28;20480;-73
2022/12/30 13:19:17;;;;;;;1.73;1.10;;;13.20;82.20;;;;;;5011249;28;20440;-74
2022/12/30 13:21:45;;;;;;;1.10;1.00;;;13.30;82.20;;;;;;5011217;28;20469;-73
2022/12/30 13:24:32;;;;;;;1.27;1.10;;;13.20;83.20;;;;;;5004262;28;20432;-73
2022/12/30 13:26:58;;;;;;;1.90;1.30;;;13.20;83.70;;;;;;5011613;28;20400;-73
2022/12/30 13:29:31;;;;;;;1.40;1.30;;;13.30;84.40;;;;;;5012660;28;20873;-74
2022/12/30 13:32:13;;;;;;;1.70;1.27;;;13.30;83.60;;;;;;5012796;28;20904;-73
2022/12/30 13:35:14;;;;;;;2.45;1.45;;;13.30;84.20;;;;;;5010854;28;20419;-73
2022/12/30 13:37:44;;;;;;;1.40;1.30;;;13.20;87.30;;;;;;4976030;28;20447;-73
2022/12/30 13:40:18;;;;;;;1.50;1.40;;;13.10;88.00;;;;;;5011129;28;20477;-73
2022/12/30 13:43:10;;;;;;;1.60;1.40;;;13.20;88.40;;;;;;5011834;28;20400;-73
2022/12/30 13:45:42;;;;;;;1.17;1.08;;;13.20;88.30;;;;;;5010465;28;20443;-73
2022/12/30 13:48:23;;;;;;;1.00;0.90;;;13.30;86.70;;;;;;5010354;28;20396;-73
2022/12/30 13:51:04;;;;;;;1.20;1.07;;;13.30;89.30;;;;;;5012087;28;20388;-73
2022/12/30 13:53:44;;;;;;;1.50;1.20;;;13.30;88.70;;;;;;4991238;28;20486;-73
2022/12/30 13:56:18;;;;;;;1.58;1.30;;;13.40;88.30;;;;;;4992616;28;20387;-73
2022/12/30 13:58:48;;;;;;;0.90;0.90;;;13.40;87.90;;;;;;4995159;28;20405;-73
2022/12/30 14:01:20;;;;;;;1.52;0.98;;;13.40;88.60;;;;;;5012486;28;20388;-73
2022/12/30 14:03:46;;;;;;;1.87;0.90;;;13.40;89.40;;;;;;5011373;28;20417;-73
2022/12/30 14:06:45;;;;;;;0.80;0.80;;;13.40;89.20;;;;;;5011421;28;20671;-72
2022/12/30 14:09:19;;;;;;;1.80;0.70;;;13.50;88.70;;;;;;5009402;28;20454;-73
2022/12/30 14:12:21;;;;;;;1.70;0.70;;;13.50;90.10;;;;;;5003683;28;20859;-73
2022/12/30 14:14:46;;;;;;;0.95;0.63;;;13.50;89.50;;;;;;5003732;28;20401;-73
2022/12/30 14:17:12;;;;;;;1.80;0.90;;;13.50;90.00;;;;;;5007205;28;20401;-73
2022/12/30 14:20:06;;;;;;;0.90;0.80;;;13.50;89.00;;;;;;5011213;28;20405;-73
2022/12/30 14:22:40;;;;;;;1.00;0.45;;;13.50;89.90;;;;;;4999844;28;20393;-73